Terminal Aerodrome Forecast
Issued by NWS

Home | Current Version | Previous Version | Text Only | Print | Product List | Glossary On
Versions: 1 2 3 4 5 6 7 8 9 10 11 12 13 14 15 16
000
FTUS46 KPQR 270542
TAFONP
TAF
KONP 270542Z 2706/2806 VRB03KT P6SM -SHRA SCT025 OVC035
      TEMPO 2706/2710 BKN025
     FM271600 21006KT P6SM -SHRA SCT025 BKN040
     FM272100 24012KT 6SM -SHRA SCT015 BKN025 OVC040
     FM280400 24010KT P6SM -SHRA SCT025 BKN050=

USA.gov is the U.S. government's official web portal to all federal, state and local government web resources and services.